createdAt,value
2016-06-19T00:00:30.480Z,0
2016-06-19T00:01:29.421Z,0
2016-06-19T00:02:29.252Z,0
2016-06-19T00:03:29.585Z,0
2016-06-19T00:04:29.291Z,0
2016-06-19T00:05:29.310Z,0
2016-06-19T00:06:30.016Z,0
2016-06-19T00:07:29.333Z,0
2016-06-19T00:08:29.383Z,0
2016-06-19T00:09:29.323Z,0
2016-06-19T00:10:29.375Z,0
2016-06-19T00:11:30.002Z,0
2016-06-19T00:12:29.678Z,0
2016-06-19T00:13:29.385Z,0
2016-06-19T00:14:30.029Z,0
2016-06-19T00:15:29.408Z,0
2016-06-19T00:16:29.426Z,0
2016-06-19T00:17:29.539Z,0
2016-06-19T00:18:29.433Z,0
2016-06-19T00:19:29.452Z,0
2016-06-19T00:20:29.456Z,0
2016-06-19T00:21:29.491Z,0
2016-06-19T00:22:29.729Z,0
2016-06-19T00:23:30.732Z,0
2016-06-19T00:24:29.813Z,0
2016-06-19T00:25:30.145Z,0
2016-06-19T00:26:29.524Z,0
2016-06-19T00:27:29.605Z,0
2016-06-19T00:28:29.562Z,0
2016-06-19T00:29:29.564Z,0
2016-06-19T00:30:29.865Z,0
2016-06-19T00:31:29.588Z,0
2016-06-19T00:32:29.606Z,0
2016-06-19T00:33:30.235Z,0
2016-06-19T00:34:29.988Z,0
2016-06-19T00:35:29.633Z,0
2016-06-19T00:36:30.495Z,0
2016-06-19T00:37:29.640Z,0
2016-06-19T00:38:29.674Z,0
2016-06-19T00:39:29.974Z,0
2016-06-19T00:40:29.744Z,0
2016-06-19T00:41:29.747Z,0
2016-06-19T00:42:30.016Z,0
2016-06-19T00:43:29.724Z,0
2016-06-19T00:44:29.742Z,0
2016-06-19T00:45:29.746Z,0
2016-06-19T00:46:29.749Z,0
2016-06-19T00:47:30.112Z,0
2016-06-19T00:48:29.802Z,0
2016-06-19T00:49:30.087Z,0
2016-06-19T00:50:29.951Z,0
2016-06-19T00:51:29.813Z,0
2016-06-19T00:52:29.833Z,0
2016-06-19T00:53:29.820Z,0
2016-06-19T00:54:29.839Z,0
2016-06-19T00:55:29.857Z,0
2016-06-19T00:56:30.049Z,0
2016-06-19T00:57:29.881Z,0
2016-06-19T00:58:29.900Z,0
2016-06-19T00:59:30.029Z,0
2016-06-19T01:00:29.907Z,0
2016-06-19T01:01:30.051Z,0
2016-06-19T01:02:30.570Z,0
2016-06-19T01:03:30.605Z,0
2016-06-19T01:04:30.561Z,0
2016-06-19T01:05:30.158Z,0
2016-06-19T01:06:29.990Z,0
2016-06-19T01:07:30.149Z,0
2016-06-19T01:08:30.012Z,0
2016-06-19T01:09:30.172Z,0
2016-06-19T01:10:30.003Z,0
2016-06-19T01:11:30.648Z,0
2016-06-19T01:12:30.058Z,0
2016-06-19T01:13:30.670Z,0
2016-06-19T01:14:30.081Z,0
2016-06-19T01:15:31.302Z,0
2016-06-19T01:16:30.681Z,0
2016-06-19T01:17:30.106Z,0
2016-06-19T01:18:30.126Z,0
2016-06-19T01:19:30.176Z,0
2016-06-19T01:20:30.772Z,0
2016-06-19T01:21:30.136Z,0
2016-06-19T01:22:30.154Z,0
2016-06-19T01:23:30.173Z,0
2016-06-19T01:24:30.177Z,0
2016-06-19T01:25:30.212Z,0
2016-06-19T01:26:30.215Z,0
2016-06-19T01:27:30.219Z,0
2016-06-19T01:28:30.222Z,0
2016-06-19T01:29:30.241Z,0
2016-06-19T01:30:30.245Z,0
2016-06-19T01:31:30.265Z,0
2016-06-19T01:32:30.268Z,0
2016-06-19T01:33:30.302Z,0
2016-06-19T01:34:30.275Z,0
2016-06-19T01:35:30.324Z,0
2016-06-19T01:36:30.313Z,0
2016-06-19T01:37:30.316Z,0
2016-06-19T01:38:30.319Z,0
2016-06-19T01:39:30.354Z,0
2016-06-19T01:40:30.967Z,0
2016-06-19T01:41:30.361Z,0
2016-06-19T01:42:30.411Z,0
2016-06-19T01:43:30.399Z,0
2016-06-19T01:44:30.387Z,0
2016-06-19T01:45:30.406Z,0
2016-06-19T01:46:30.425Z,0
2016-06-19T01:47:30.444Z,0
2016-06-19T01:48:30.448Z,0
2016-06-19T01:49:31.061Z,0
2016-06-19T01:50:31.080Z,0
2016-06-19T01:51:30.489Z,0
2016-06-19T01:52:30.493Z,0
2016-06-19T01:53:30.512Z,0
2016-06-19T01:54:30.547Z,0
2016-06-19T01:55:31.132Z,0
2016-06-19T01:56:30.562Z,0
2016-06-19T01:57:30.553Z,0
2016-06-19T01:58:30.560Z,0
2016-06-19T01:59:30.582Z,0
2016-06-19T02:00:30.587Z,0
2016-06-19T02:01:30.592Z,0
2016-06-19T02:02:30.627Z,0
2016-06-19T02:03:30.789Z,0
2016-06-19T02:04:30.684Z,0
2016-06-19T02:05:30.657Z,0
2016-06-19T02:06:30.707Z,0
2016-06-19T02:07:30.665Z,0
2016-06-19T02:08:30.684Z,0
2016-06-19T02:09:30.704Z,0
2016-06-19T02:10:30.754Z,0
2016-06-19T02:11:32.258Z,0
2016-06-19T02:12:30.745Z,0
2016-06-19T02:13:30.764Z,0
2016-06-19T02:14:30.799Z,0
2016-06-19T02:15:31.381Z,0
2016-06-19T02:16:30.789Z,0
2016-06-19T02:17:30.809Z,0
2016-06-19T02:18:30.797Z,0
2016-06-19T02:19:30.801Z,0
2016-06-19T02:20:30.819Z,0
2016-06-19T02:21:31.464Z,0
2016-06-19T02:22:30.827Z,0
2016-06-19T02:23:30.861Z,0
2016-06-19T02:24:30.880Z,0
2016-06-19T02:25:30.868Z,0
2016-06-19T02:26:30.935Z,0
2016-06-19T02:27:30.906Z,0
2016-06-19T02:28:30.925Z,0
2016-06-19T02:29:30.913Z,0
2016-06-19T02:30:30.948Z,0
2016-06-19T02:31:30.952Z,0
2016-06-19T02:32:30.970Z,0
2016-06-19T02:33:30.974Z,0
2016-06-19T02:34:30.993Z,0
2016-06-19T02:35:30.966Z,0
2016-06-19T02:36:30.984Z,0
2016-06-19T02:37:31.019Z,0
2016-06-19T02:38:31.648Z,0
2016-06-19T02:39:31.041Z,0
2016-06-19T02:40:31.669Z,0
2016-06-19T02:41:31.064Z,0
2016-06-19T02:42:31.052Z,0
2016-06-19T02:43:31.086Z,0
2016-06-19T02:44:31.090Z,0
2016-06-19T02:45:31.125Z,0
2016-06-19T02:46:31.112Z,0
2016-06-19T02:47:32.069Z,0
2016-06-19T02:48:31.120Z,0
2016-06-19T02:49:31.138Z,0
2016-06-19T02:50:31.767Z,0
2016-06-19T02:51:31.177Z,0
2016-06-19T02:52:31.431Z,0
2016-06-19T02:53:31.199Z,0
2016-06-19T02:54:31.218Z,0
2016-06-19T02:55:31.238Z,0
2016-06-19T02:56:31.225Z,0
2016-06-19T02:57:31.244Z,0
2016-06-19T02:58:31.435Z,0
2016-06-19T02:59:31.252Z,0
2016-06-19T03:00:31.270Z,0
2016-06-19T03:01:31.492Z,0
2016-06-19T03:02:31.293Z,0
2016-06-19T03:03:31.312Z,0
2016-06-19T03:04:31.300Z,0
2016-06-19T03:05:31.522Z,0
2016-06-19T03:06:31.526Z,0
2016-06-19T03:07:31.357Z,0
2016-06-19T03:08:31.361Z,0
2016-06-19T03:09:32.005Z,0
2016-06-19T03:10:31.383Z,0
2016-06-19T03:11:31.387Z,0
2016-06-19T03:12:31.702Z,0
2016-06-19T03:13:31.440Z,0
2016-06-19T03:14:31.523Z,0
2016-06-19T03:15:31.447Z,0
2016-06-19T03:16:32.263Z,0
2016-06-19T03:17:31.454Z,0
2016-06-19T03:18:32.443Z,0
2016-06-19T03:19:31.476Z,0
2016-06-19T03:20:31.480Z,0
2016-06-19T03:21:31.515Z,0
2016-06-19T03:22:31.503Z,0
2016-06-19T03:23:32.131Z,0
2016-06-19T03:24:31.807Z,0
2016-06-19T03:25:32.420Z,0
2016-06-19T03:26:32.439Z,0
2016-06-19T03:27:32.192Z,0
2016-06-19T03:28:31.571Z,0
2016-06-19T03:29:32.199Z,0
2016-06-19T03:30:32.203Z,0
2016-06-19T03:31:31.877Z,0
2016-06-19T03:32:31.912Z,0
2016-06-19T03:33:32.275Z,0
2016-06-19T03:34:32.295Z,0
2016-06-19T03:35:31.751Z,0
2016-06-19T03:36:31.660Z,0
2016-06-19T03:37:31.711Z,0
2016-06-19T03:38:31.683Z,0
2016-06-19T03:39:31.687Z,0
2016-06-19T03:40:32.065Z,0
2016-06-19T03:41:31.741Z,0
2016-06-19T03:42:31.728Z,0
2016-06-19T03:43:31.810Z,0
2016-06-19T03:44:31.751Z,0
2016-06-19T03:45:31.769Z,0
2016-06-19T03:46:31.773Z,0
2016-06-19T03:47:31.887Z,0
2016-06-19T03:48:31.795Z,0
2016-06-19T03:49:32.690Z,0
2016-06-19T03:50:31.975Z,0
2016-06-19T03:51:31.837Z,0
2016-06-19T03:52:31.981Z,0
2016-06-19T03:53:31.845Z,0
2016-06-19T03:54:32.020Z,0
2016-06-19T03:55:31.882Z,0
2016-06-19T03:56:31.886Z,0
2016-06-19T03:57:32.092Z,0
2016-06-19T03:58:31.971Z,0
2016-06-19T03:59:31.896Z,0
2016-06-19T04:00:31.947Z,0
2016-06-19T04:01:32.044Z,0
2016-06-19T04:02:32.219Z,0
2016-06-19T04:03:31.957Z,0
2016-06-19T04:04:31.991Z,0
2016-06-19T04:05:32.089Z,0
2016-06-19T04:06:32.030Z,0
2016-06-19T04:07:32.018Z,0
2016-06-19T04:08:32.005Z,0
2016-06-19T04:09:32.041Z,0
2016-06-19T04:10:32.044Z,0
2016-06-19T04:11:32.673Z,0
2016-06-19T04:12:32.084Z,0
2016-06-19T04:13:32.074Z,0
2016-06-19T04:14:32.297Z,0
2016-06-19T04:15:32.099Z,0
2016-06-19T04:16:32.120Z,0
2016-06-19T04:17:32.139Z,0
2016-06-19T04:18:32.785Z,0
2016-06-19T04:19:32.413Z,0
2016-06-19T04:20:32.183Z,0
2016-06-19T04:21:32.578Z,0
2016-06-19T04:22:32.190Z,0
2016-06-19T04:23:32.303Z,0
2016-06-19T04:24:32.416Z,0
2016-06-19T04:25:32.233Z,0
2016-06-19T04:26:32.579Z,0
2016-06-19T04:27:32.239Z,0
2016-06-19T04:28:32.243Z,0
2016-06-19T04:29:32.308Z,0
2016-06-19T04:30:32.265Z,0
2016-06-19T04:31:32.284Z,0
2016-06-19T04:32:32.287Z,0
2016-06-19T04:33:32.400Z,0
2016-06-19T04:34:32.451Z,0
2016-06-19T04:35:32.314Z,0
2016-06-19T04:36:32.535Z,0
2016-06-19T04:37:32.961Z,0
2016-06-19T04:38:33.012Z,0
2016-06-19T04:39:32.373Z,0
2016-06-19T04:40:32.393Z,0
2016-06-19T04:41:32.428Z,0
2016-06-19T04:42:33.009Z,0
2016-06-19T04:43:32.529Z,0
2016-06-19T04:44:32.455Z,0
2016-06-19T04:45:32.457Z,0
2016-06-19T04:46:32.461Z,0
2016-06-19T04:47:32.465Z,0
2016-06-19T04:48:32.484Z,0
2016-06-19T04:49:32.502Z,0
2016-06-19T04:50:32.506Z,0
2016-06-19T04:51:33.150Z,0
2016-06-19T04:52:32.560Z,0
2016-06-19T04:53:32.547Z,0
2016-06-19T04:54:32.519Z,0
2016-06-19T04:55:32.554Z,0
2016-06-19T04:56:32.558Z,0
2016-06-19T04:57:32.577Z,0
2016-06-19T04:58:32.596Z,5
2016-06-19T04:59:34.412Z,5
2016-06-19T05:00:32.603Z,5
2016-06-19T05:01:32.638Z,5
2016-06-19T05:02:32.626Z,5
2016-06-19T05:03:32.692Z,5
2016-06-19T05:04:33.257Z,5
2016-06-19T05:05:32.668Z,5
2016-06-19T05:06:32.671Z,5
2016-06-19T05:07:32.721Z,5
2016-06-19T05:08:32.693Z,5
2016-06-19T05:09:32.696Z,5
2016-06-19T05:10:32.763Z,5
2016-06-19T05:11:32.720Z,5
2016-06-19T05:12:32.738Z,5
2016-06-19T05:13:33.382Z,5
2016-06-19T05:14:32.777Z,5
2016-06-19T05:15:32.764Z,5
2016-06-19T05:16:32.768Z,5
2016-06-19T05:17:32.818Z,5
2016-06-19T05:18:32.806Z,5
2016-06-19T05:19:32.809Z,5
2016-06-19T05:20:32.828Z,5
2016-06-19T05:21:32.848Z,5
2016-06-19T05:22:35.289Z,5
2016-06-19T05:23:32.855Z,5
2016-06-19T05:24:32.874Z,5
2016-06-19T05:25:32.877Z,5
2016-06-19T05:26:32.896Z,5
2016-06-19T05:27:33.509Z,5
2016-06-19T05:28:32.934Z,5
2016-06-19T05:29:32.954Z,5
2016-06-19T05:30:32.925Z,5
2016-06-19T05:31:34.163Z,5
2016-06-19T05:32:32.949Z,5
2016-06-19T05:33:32.998Z,5
2016-06-19T05:34:32.986Z,5
2016-06-19T05:35:33.006Z,5
2016-06-19T05:36:32.978Z,5
2016-06-19T05:37:33.029Z,5
2016-06-19T05:38:33.015Z,5
2016-06-19T05:39:33.035Z,5
2016-06-19T05:40:33.023Z,5
2016-06-19T05:41:33.074Z,5
2016-06-19T05:42:33.716Z,5
2016-06-19T05:43:33.690Z,5
2016-06-19T05:44:33.083Z,5
2016-06-19T05:45:33.696Z,5
2016-06-19T05:46:33.137Z,5
2016-06-19T05:47:33.141Z,5
2016-06-19T05:48:33.129Z,5
2016-06-19T05:49:33.756Z,5
2016-06-19T05:50:33.151Z,5
2016-06-19T05:51:33.170Z,5
2016-06-19T05:52:33.174Z,5
2016-06-19T05:53:33.192Z,5
2016-06-19T05:54:33.181Z,5
2016-06-19T05:55:33.215Z,5
2016-06-19T05:56:33.219Z,5
2016-06-19T05:57:33.238Z,5
2016-06-19T05:58:33.257Z,5
2016-06-19T05:59:33.276Z,5
2016-06-19T06:00:33.247Z,5
2016-06-19T06:01:33.282Z,5
2016-06-19T06:02:33.896Z,5
2016-06-19T06:03:33.305Z,5
2016-06-19T06:04:33.371Z,5
2016-06-19T06:05:33.343Z,5
2016-06-19T06:06:33.331Z,5
2016-06-19T06:07:33.335Z,5
2016-06-19T06:08:33.354Z,5
2016-06-19T06:09:33.357Z,5
2016-06-19T06:10:33.392Z,5
2016-06-19T06:11:33.380Z,5
2016-06-19T06:12:33.400Z,5
2016-06-19T06:13:33.418Z,5
2016-06-19T06:14:33.422Z,5
2016-06-19T06:15:33.441Z,5
2016-06-19T06:16:33.428Z,5
2016-06-19T06:17:34.088Z,5
2016-06-19T06:18:34.076Z,5
2016-06-19T06:19:33.469Z,10
2016-06-19T06:20:33.505Z,10
2016-06-19T06:21:33.508Z,10
2016-06-19T06:22:34.105Z,10
2016-06-19T06:23:33.812Z,10
2016-06-19T06:24:33.550Z,10
2016-06-19T06:25:34.210Z,10
2016-06-19T06:26:33.556Z,10
2016-06-19T06:27:33.560Z,10
2016-06-19T06:28:33.617Z,10
2016-06-19T06:29:33.845Z,10
2016-06-19T06:30:33.620Z,10
2016-06-19T06:31:33.645Z,10
2016-06-19T06:32:33.684Z,10
2016-06-19T06:33:33.862Z,10
2016-06-19T06:34:33.680Z,10
2016-06-19T06:35:33.702Z,10
2016-06-19T06:36:33.692Z,10
2016-06-19T06:37:33.979Z,10
2016-06-19T06:38:33.733Z,10
2016-06-19T06:39:35.081Z,10
2016-06-19T06:40:33.773Z,10
2016-06-19T06:41:33.777Z,10
2016-06-19T06:42:33.798Z,10
2016-06-19T06:43:34.034Z,10
2016-06-19T06:44:33.819Z,10
2016-06-19T06:45:33.807Z,15
2016-06-19T06:46:34.468Z,15
2016-06-19T06:47:33.830Z,15
2016-06-19T06:48:33.849Z,15
2016-06-19T06:49:33.853Z,15
2016-06-19T06:50:33.871Z,15
2016-06-19T06:51:33.984Z,15
2016-06-19T06:52:33.894Z,15
2016-06-19T06:53:34.491Z,15
2016-06-19T06:54:33.917Z,15
2016-06-19T06:55:33.920Z,15
2016-06-19T06:56:34.549Z,15
2016-06-19T06:57:33.942Z,15
2016-06-19T06:58:33.962Z,15
2016-06-19T06:59:34.231Z,15
2016-06-19T07:00:33.985Z,15
2016-06-19T07:01:33.972Z,15
2016-06-19T07:02:33.991Z,15
2016-06-19T07:03:34.635Z,10
2016-06-19T07:04:34.763Z,15
2016-06-19T07:05:34.017Z,15
2016-06-19T07:06:34.051Z,10
2016-06-19T07:07:34.055Z,10
2016-06-19T07:08:34.075Z,10
2016-06-19T07:09:34.077Z,10
2016-06-19T07:10:34.097Z,10
2016-06-19T07:11:34.990Z,10
2016-06-19T07:12:34.791Z,10
2016-06-19T07:13:34.108Z,10
2016-06-19T07:14:34.923Z,10
2016-06-19T07:15:34.129Z,10
2016-06-19T07:16:34.164Z,5
2016-06-19T07:17:34.386Z,10
2016-06-19T07:18:35.015Z,10
2016-06-19T07:19:34.815Z,10
2016-06-19T07:20:34.913Z,10
2016-06-19T07:21:34.823Z,10
2016-06-19T07:22:34.263Z,10
2016-06-19T07:23:34.235Z,10
2016-06-19T07:24:34.832Z,10
2016-06-19T07:25:34.867Z,10
2016-06-19T07:26:34.527Z,10
2016-06-19T07:27:34.281Z,10
2016-06-19T07:28:34.285Z,10
2016-06-19T07:29:35.162Z,10
2016-06-19T07:30:34.931Z,10
2016-06-19T07:31:34.310Z,10
2016-06-19T07:32:35.204Z,10
2016-06-19T07:33:34.349Z,10
2016-06-19T07:34:34.352Z,10
2016-06-19T07:35:34.356Z,10
2016-06-19T07:36:34.687Z,10
2016-06-19T07:37:34.377Z,10
2016-06-19T07:38:34.397Z,10
2016-06-19T07:39:35.165Z,10
2016-06-19T07:40:34.669Z,10
2016-06-19T07:41:34.469Z,10
2016-06-19T07:42:34.442Z,10
2016-06-19T07:43:35.133Z,10
2016-06-19T07:44:34.448Z,10
2016-06-19T07:45:34.483Z,10
2016-06-19T07:46:35.190Z,10
2016-06-19T07:47:34.490Z,10
2016-06-19T07:48:36.072Z,10
2016-06-19T07:49:34.529Z,10
2016-06-19T07:50:34.719Z,10
2016-06-19T07:51:34.535Z,10
2016-06-19T07:52:34.851Z,10
2016-06-19T07:53:35.168Z,10
2016-06-19T07:54:34.561Z,10
2016-06-19T07:55:34.596Z,10
2016-06-19T07:56:34.599Z,10
2016-06-19T07:57:35.213Z,10
2016-06-19T07:58:34.622Z,10
2016-06-19T07:59:34.657Z,10
2016-06-19T08:00:34.629Z,10
2016-06-19T08:01:34.648Z,10
2016-06-19T08:02:35.245Z,15
2016-06-19T08:03:34.686Z,15
2016-06-19T08:04:34.674Z,15
2016-06-19T08:05:34.709Z,15
2016-06-19T08:06:34.713Z,15
2016-06-19T08:07:34.717Z,15
2016-06-19T08:08:34.719Z,15
2016-06-19T08:09:34.770Z,15
2016-06-19T08:10:34.757Z,15
2016-06-19T08:11:34.761Z,15
2016-06-19T08:12:34.811Z,15
2016-06-19T08:13:34.783Z,15
2016-06-19T08:14:35.412Z,15
2016-06-19T08:15:35.415Z,15
2016-06-19T08:16:34.841Z,15
2016-06-19T08:17:35.250Z,15
2016-06-19T08:18:34.832Z,15
2016-06-19T08:19:34.851Z,15
2016-06-19T08:20:34.870Z,15
2016-06-19T08:21:34.858Z,15
2016-06-19T08:22:35.486Z,15
2016-06-19T08:23:34.943Z,15
2016-06-19T08:24:34.900Z,15
2016-06-19T08:25:35.512Z,15
2016-06-19T08:26:34.922Z,15
2016-06-19T08:27:34.941Z,15
2016-06-19T08:28:34.960Z,15
2016-06-19T08:29:34.948Z,15
2016-06-19T08:30:34.967Z,15
2016-06-19T08:31:34.970Z,15
2016-06-19T08:32:34.990Z,15
2016-06-19T08:33:34.993Z,15
2016-06-19T08:34:35.013Z,15
2016-06-19T08:35:35.016Z,15
2016-06-19T08:36:35.050Z,15
2016-06-19T08:37:35.038Z,15
2016-06-19T08:38:35.041Z,15
2016-06-19T08:39:35.077Z,15
2016-06-19T08:40:35.096Z,15
2016-06-19T08:41:35.084Z,15
2016-06-19T08:42:35.118Z,15
2016-06-19T08:43:35.730Z,15
2016-06-19T08:44:35.736Z,15
2016-06-19T08:45:35.134Z,15
2016-06-19T08:46:35.171Z,15
2016-06-19T08:47:35.161Z,15
2016-06-19T08:48:35.183Z,15
2016-06-19T08:49:35.844Z,15
2016-06-19T08:50:35.223Z,15
2016-06-19T08:51:35.213Z,15
2016-06-19T08:52:35.248Z,15
2016-06-19T08:53:35.253Z,20
2016-06-19T08:54:35.257Z,20
2016-06-19T08:55:35.870Z,20
2016-06-19T08:56:35.296Z,20
2016-06-19T08:57:35.299Z,20
2016-06-19T08:58:35.304Z,20
2016-06-19T08:59:35.323Z,20
2016-06-19T09:00:35.311Z,20
2016-06-19T09:01:35.345Z,20
2016-06-19T09:02:35.334Z,20
2016-06-19T09:03:35.993Z,20
2016-06-19T09:04:36.027Z,20
2016-06-19T09:05:35.984Z,20
2016-06-19T09:06:35.409Z,20
2016-06-19T09:07:35.398Z,20
2016-06-19T09:08:35.401Z,20
2016-06-19T09:09:35.436Z,20
2016-06-19T09:10:35.455Z,20
2016-06-19T09:11:35.442Z,20
2016-06-19T09:12:35.446Z,15
2016-06-19T09:13:35.496Z,15
2016-06-19T09:14:35.484Z,15
2016-06-19T09:15:36.097Z,15
2016-06-19T09:16:35.491Z,15
2016-06-19T09:17:35.511Z,15
2016-06-19T09:18:35.514Z,15
2016-06-19T09:19:35.549Z,15
2016-06-19T09:20:35.536Z,15
2016-06-19T09:21:35.556Z,15
2016-06-19T09:22:35.558Z,20
2016-06-19T09:23:35.578Z,20
2016-06-19T09:24:35.581Z,20
2016-06-19T09:25:36.225Z,20
2016-06-19T09:26:36.229Z,20
2016-06-19T09:27:35.639Z,20
2016-06-19T09:28:35.643Z,20
2016-06-19T09:29:35.629Z,20
2016-06-19T09:30:36.274Z,20
2016-06-19T09:31:35.699Z,20
2016-06-19T09:32:35.688Z,20
2016-06-19T09:33:35.675Z,20
2016-06-19T09:34:36.320Z,20
2016-06-19T09:35:35.697Z,20
2016-06-19T09:36:35.748Z,20
2016-06-19T09:37:35.751Z,20
2016-06-19T09:38:35.755Z,20
2016-06-19T09:39:35.743Z,20
2016-06-19T09:40:37.620Z,20
2016-06-19T09:41:35.812Z,20
2016-06-19T09:42:35.784Z,20
2016-06-19T09:43:35.819Z,20
2016-06-19T09:44:35.807Z,20
2016-06-19T09:45:35.826Z,20
2016-06-19T09:46:36.439Z,20
2016-06-19T09:47:36.504Z,20
2016-06-19T09:48:35.882Z,20
2016-06-19T09:49:35.871Z,20
2016-06-19T09:50:35.889Z,20
2016-06-19T09:51:35.878Z,20
2016-06-19T09:52:35.913Z,20
2016-06-19T09:53:35.916Z,20
2016-06-19T09:54:35.966Z,20
2016-06-19T09:55:35.939Z,20
2016-06-19T09:56:35.942Z,20
2016-06-19T09:57:35.946Z,20
2016-06-19T09:58:36.042Z,20
2016-06-19T09:59:35.968Z,20
2016-06-19T10:00:35.987Z,20
2016-06-19T10:01:36.021Z,20
2016-06-19T10:02:36.010Z,20
2016-06-19T10:03:36.029Z,20
2016-06-19T10:04:36.048Z,20
2016-06-19T10:05:36.082Z,20
2016-06-19T10:06:36.055Z,20
2016-06-19T10:07:36.073Z,20
2016-06-19T10:08:36.093Z,20
2016-06-19T10:09:36.080Z,20
2016-06-19T10:10:36.131Z,20
2016-06-19T10:11:36.119Z,20
2016-06-19T10:12:36.137Z,20
2016-06-19T10:13:36.126Z,20
2016-06-19T10:14:36.176Z,20
2016-06-19T10:15:36.148Z,20
2016-06-19T10:16:36.167Z,20
2016-06-19T10:17:36.827Z,20
2016-06-19T10:18:36.205Z,20
2016-06-19T10:19:36.834Z,20
2016-06-19T10:20:36.837Z,20
2016-06-19T10:21:36.857Z,20
2016-06-19T10:22:36.266Z,20
2016-06-19T10:23:36.848Z,20
2016-06-19T10:24:36.882Z,20
2016-06-19T10:25:36.870Z,20
2016-06-19T10:26:36.311Z,20
2016-06-19T10:27:36.892Z,25
2016-06-19T10:28:36.943Z,25
2016-06-19T10:29:36.368Z,25
2016-06-19T10:30:36.325Z,25
2016-06-19T10:31:36.345Z,25
2016-06-19T10:32:36.364Z,20
2016-06-19T10:33:36.368Z,20
2016-06-19T10:34:36.371Z,20
2016-06-19T10:35:36.389Z,25
2016-06-19T10:36:36.456Z,25
2016-06-19T10:37:36.396Z,25
2016-06-19T10:38:36.415Z,25
2016-06-19T10:39:36.403Z,25
2016-06-19T10:40:37.062Z,25
2016-06-19T10:41:37.676Z,25
2016-06-19T10:42:37.086Z,25
2016-06-19T10:43:36.480Z,25
2016-06-19T10:44:36.499Z,25
2016-06-19T10:45:36.486Z,25
2016-06-19T10:46:36.505Z,25
2016-06-19T10:47:36.524Z,20
2016-06-19T10:48:36.528Z,20
2016-06-19T10:49:36.548Z,20
2016-06-19T10:50:36.551Z,20
2016-06-19T10:51:36.570Z,20
2016-06-19T10:52:36.557Z,20
2016-06-19T10:53:36.593Z,20
2016-06-19T10:54:36.643Z,20
2016-06-19T10:55:36.583Z,20
2016-06-19T10:56:36.633Z,20
2016-06-19T10:57:36.637Z,20
2016-06-19T10:58:36.641Z,20
2016-06-19T10:59:36.644Z,20
2016-06-19T11:00:36.664Z,20
2016-06-19T11:01:36.669Z,20
2016-06-19T11:02:36.705Z,20
2016-06-19T11:03:36.710Z,20
2016-06-19T11:04:36.777Z,20
2016-06-19T11:05:36.719Z,20
2016-06-19T11:06:36.754Z,20
2016-06-19T11:07:36.743Z,20
2016-06-19T11:08:36.762Z,20
2016-06-19T11:09:36.766Z,20
2016-06-19T11:10:36.786Z,20
2016-06-19T11:11:36.805Z,20
2016-06-19T11:12:36.794Z,20
2016-06-19T11:13:36.828Z,20
2016-06-19T11:14:36.833Z,20
2016-06-19T11:15:36.836Z,20
2016-06-19T11:16:36.839Z,20
2016-06-19T11:17:36.874Z,20
2016-06-19T11:18:36.893Z,20
2016-06-19T11:19:36.881Z,20
2016-06-19T11:20:36.900Z,20
2016-06-19T11:21:36.935Z,20
2016-06-19T11:22:36.923Z,20
2016-06-19T11:23:36.927Z,20
2016-06-19T11:24:36.945Z,20
2016-06-19T11:25:36.948Z,20
2016-06-19T11:26:36.968Z,20
2016-06-19T11:27:37.019Z,20
2016-06-19T11:28:36.990Z,20
2016-06-19T11:29:38.228Z,20
2016-06-19T11:30:38.232Z,20
2016-06-19T11:31:37.032Z,20
2016-06-19T11:32:37.020Z,20
2016-06-19T11:33:37.054Z,20
2016-06-19T11:34:37.073Z,20
2016-06-19T11:35:37.061Z,20
2016-06-19T11:36:37.689Z,20
2016-06-19T11:37:37.693Z,20
2016-06-19T11:38:37.087Z,20
2016-06-19T11:39:37.122Z,20
2016-06-19T11:40:37.125Z,20
2016-06-19T11:41:37.159Z,20
2016-06-19T11:42:37.149Z,20
2016-06-19T11:43:37.152Z,20
2016-06-19T11:44:37.170Z,25
2016-06-19T11:45:37.174Z,25
2016-06-19T11:46:37.193Z,20
2016-06-19T11:47:37.822Z,20
2016-06-19T11:48:37.216Z,20
2016-06-19T11:49:37.219Z,20
2016-06-19T11:50:37.238Z,20
2016-06-19T11:51:37.273Z,20
2016-06-19T11:52:37.244Z,20
2016-06-19T11:53:37.265Z,20
2016-06-19T11:54:37.284Z,25
2016-06-19T11:55:37.928Z,25
2016-06-19T11:56:37.306Z,25
2016-06-19T11:57:37.310Z,25
2016-06-19T11:58:37.968Z,25
2016-06-19T11:59:37.957Z,25
2016-06-19T12:00:37.351Z,25
2016-06-19T12:01:37.354Z,25
2016-06-19T12:02:37.967Z,25
2016-06-19T12:03:37.393Z,25
2016-06-19T12:04:37.381Z,25
2016-06-19T12:05:37.415Z,25
2016-06-19T12:06:37.403Z,25
2016-06-19T12:07:37.422Z,25
2016-06-19T12:08:37.426Z,25
2016-06-19T12:09:37.444Z,25
2016-06-19T12:10:37.464Z,25
2016-06-19T12:11:37.482Z,25
2016-06-19T12:12:37.503Z,25
2016-06-19T12:13:37.490Z,25
2016-06-19T12:14:37.509Z,25
2016-06-19T12:15:37.543Z,25
2016-06-19T12:16:37.516Z,25
2016-06-19T12:17:37.534Z,25
2016-06-19T12:18:37.538Z,25
2016-06-19T12:19:38.198Z,25
2016-06-19T12:20:37.561Z,25
2016-06-19T12:21:38.221Z,25
2016-06-19T12:22:37.598Z,25
2016-06-19T12:23:37.602Z,25
2016-06-19T12:24:37.622Z,25
2016-06-19T12:25:37.609Z,25
2016-06-19T12:26:37.660Z,25
2016-06-19T12:27:37.648Z,25
2016-06-19T12:28:37.666Z,25
2016-06-19T12:29:37.670Z,25
2016-06-19T12:30:37.690Z,25
2016-06-19T12:31:37.676Z,25
2016-06-19T12:32:37.711Z,25
2016-06-19T12:33:37.715Z,20
2016-06-19T12:34:37.734Z,20
2016-06-19T12:35:37.737Z,20
2016-06-19T12:36:37.772Z,20
2016-06-19T12:37:37.744Z,20
2016-06-19T12:38:37.780Z,20
2016-06-19T12:39:37.814Z,20
2016-06-19T12:40:37.771Z,20
2016-06-19T12:41:37.806Z,20
2016-06-19T12:42:38.418Z,20
2016-06-19T12:43:37.860Z,20
2016-06-19T12:44:37.832Z,25
2016-06-19T12:45:37.851Z,25
2016-06-19T12:46:37.884Z,25
2016-06-19T12:47:37.857Z,25
2016-06-19T12:48:37.892Z,25
2016-06-19T12:49:37.911Z,25
2016-06-19T12:50:38.273Z,25
2016-06-19T12:51:37.918Z,25
2016-06-19T12:52:37.937Z,25
2016-06-19T12:53:37.941Z,25
2016-06-19T12:54:37.976Z,25
2016-06-19T12:55:37.963Z,25
2016-06-19T12:56:37.999Z,25
2016-06-19T12:57:37.986Z,25
2016-06-19T12:58:38.021Z,25
2016-06-19T12:59:38.617Z,25
2016-06-19T13:00:38.027Z,25
2016-06-19T13:01:38.687Z,25
2016-06-19T13:02:38.065Z,25
2016-06-19T13:03:38.662Z,25
2016-06-19T13:04:38.072Z,25
2016-06-19T13:05:38.686Z,25
2016-06-19T13:06:38.095Z,25
2016-06-19T13:07:38.114Z,25
2016-06-19T13:08:38.118Z,25
2016-06-19T13:09:39.339Z,25
2016-06-19T13:10:38.156Z,25
2016-06-19T13:11:38.128Z,25
2016-06-19T13:12:38.162Z,25
2016-06-19T13:13:38.197Z,25
2016-06-19T13:14:38.201Z,25
2016-06-19T13:15:38.798Z,25
2016-06-19T13:16:38.193Z,25
2016-06-19T13:17:38.230Z,25
2016-06-19T13:18:38.237Z,25
2016-06-19T13:19:38.259Z,25
2016-06-19T13:20:38.265Z,25
2016-06-19T13:22:42.433Z,25
2016-06-19T13:22:51.151Z,25
2016-06-19T13:23:51.171Z,30
2016-06-19T13:24:51.160Z,30
2016-06-19T13:25:51.212Z,30
2016-06-19T13:26:51.186Z,30
2016-06-19T13:27:51.220Z,25
2016-06-19T13:28:51.224Z,25
2016-06-19T13:29:51.838Z,25
2016-06-19T13:30:51.856Z,25
2016-06-19T13:31:51.251Z,25
2016-06-19T13:32:51.271Z,25
2016-06-19T13:33:51.900Z,25
2016-06-19T13:34:51.310Z,25
2016-06-19T13:35:51.314Z,25
2016-06-19T13:36:51.318Z,30
2016-06-19T13:37:51.336Z,30
2016-06-19T13:38:51.340Z,30
2016-06-19T13:39:51.375Z,30
2016-06-19T13:40:51.957Z,30
2016-06-19T13:41:51.991Z,30
2016-06-19T13:42:51.386Z,30
2016-06-19T13:43:51.998Z,30
2016-06-19T13:44:51.423Z,30
2016-06-19T13:45:51.427Z,30
2016-06-19T13:46:51.431Z,30
2016-06-19T13:47:51.450Z,30
2016-06-19T13:48:51.468Z,30
2016-06-19T13:49:52.082Z,30
2016-06-19T13:50:51.491Z,30
2016-06-19T13:51:52.104Z,30
2016-06-19T13:52:52.107Z,30
2016-06-19T13:53:51.517Z,35
2016-06-19T13:54:51.552Z,35
2016-06-19T13:55:51.524Z,35
2016-06-19T13:56:51.559Z,35
2016-06-19T13:57:51.547Z,35
2016-06-19T13:58:51.566Z,35
2016-06-19T13:59:51.570Z,35
2016-06-19T14:00:51.603Z,35
2016-06-19T14:01:51.592Z,35
2016-06-19T14:02:51.627Z,35
2016-06-19T14:03:51.631Z,35
2016-06-19T14:04:51.634Z,35
2016-06-19T14:05:51.652Z,40
2016-06-19T14:06:51.672Z,40
2016-06-19T14:07:51.690Z,40
2016-06-19T14:08:51.678Z,40
2016-06-19T14:09:51.682Z,40
2016-06-19T14:10:51.701Z,40
2016-06-19T14:11:51.720Z,40
2016-06-19T14:12:51.723Z,40
2016-06-19T14:13:51.758Z,40
2016-06-19T14:14:51.762Z,40
2016-06-19T14:15:51.781Z,40
2016-06-19T14:16:51.754Z,45
2016-06-19T14:17:51.788Z,45
2016-06-19T14:18:51.791Z,45
2016-06-19T14:19:51.811Z,45
2016-06-19T14:20:51.814Z,45
2016-06-19T14:21:51.864Z,45
2016-06-19T14:22:51.836Z,45
2016-06-19T14:23:51.870Z,50
2016-06-19T14:24:51.859Z,50
2016-06-19T14:25:51.877Z,50
2016-06-19T14:26:51.881Z,50
2016-06-19T14:27:51.916Z,55
2016-06-19T14:28:51.904Z,55
2016-06-19T14:29:51.970Z,55